sensor_id;sensor_type;location;lat;lon;timestamp;temperature;humidity
80412;SHT30;69749;42.684;23.360;2023-07-20T00:01:43;25.02;50.25
80412;SHT30;69749;42.684;23.360;2023-07-20T00:04:10;25.02;50.10
80412;SHT30;69749;42.684;23.360;2023-07-20T00:06:35;25.03;49.94
80412;SHT30;69749;42.684;23.360;2023-07-20T00:09:01;25.09;49.32
80412;SHT30;69749;42.684;23.360;2023-07-20T00:11:27;25.12;49.17
80412;SHT30;69749;42.684;23.360;2023-07-20T00:13:53;25.12;49.57
80412;SHT30;69749;42.684;23.360;2023-07-20T00:16:18;25.16;49.57
80412;SHT30;69749;42.684;23.360;2023-07-20T00:18:44;25.20;49.33
80412;SHT30;69749;42.684;23.360;2023-07-20T00:21:09;25.18;49.37
80412;SHT30;69749;42.684;23.360;2023-07-20T00:23:35;25.13;49.54
80412;SHT30;69749;42.684;23.360;2023-07-20T00:26:01;25.12;49.88
80412;SHT30;69749;42.684;23.360;2023-07-20T00:28:26;25.03;51.62
80412;SHT30;69749;42.684;23.360;2023-07-20T00:30:51;24.99;51.98
80412;SHT30;69749;42.684;23.360;2023-07-20T00:33:17;24.96;52.05
80412;SHT30;69749;42.684;23.360;2023-07-20T00:35:43;24.95;52.58
80412;SHT30;69749;42.684;23.360;2023-07-20T00:38:09;24.92;53.57
80412;SHT30;69749;42.684;23.360;2023-07-20T00:40:40;24.88;54.25
80412;SHT30;69749;42.684;23.360;2023-07-20T00:43:06;24.81;54.91
80412;SHT30;69749;42.684;23.360;2023-07-20T00:45:33;24.75;55.38
80412;SHT30;69749;42.684;23.360;2023-07-20T00:47:59;24.61;56.02
80412;SHT30;69749;42.684;23.360;2023-07-20T00:50:27;24.53;56.33
80412;SHT30;69749;42.684;23.360;2023-07-20T00:52:54;24.55;56.36
80412;SHT30;69749;42.684;23.360;2023-07-20T00:55:20;24.48;56.53
80412;SHT30;69749;42.684;23.360;2023-07-20T00:57:46;24.45;56.70
80412;SHT30;69749;42.684;23.360;2023-07-20T01:00:12;24.41;56.82
80412;SHT30;69749;42.684;23.360;2023-07-20T01:02:38;24.43;56.84
80412;SHT30;69749;42.684;23.360;2023-07-20T01:05:04;24.41;56.92
80412;SHT30;69749;42.684;23.360;2023-07-20T01:07:35;24.40;57.02
80412;SHT30;69749;42.684;23.360;2023-07-20T01:10:12;24.35;57.03
80412;SHT30;69749;42.684;23.360;2023-07-20T01:12:42;24.38;56.99
80412;SHT30;69749;42.684;23.360;2023-07-20T01:15:08;24.34;57.19
80412;SHT30;69749;42.684;23.360;2023-07-20T01:17:35;24.27;57.47
80412;SHT30;69749;42.684;23.360;2023-07-20T01:20:00;24.25;57.51
80412;SHT30;69749;42.684;23.360;2023-07-20T01:33:38;24.10;57.54
80412;SHT30;69749;42.684;23.360;2023-07-20T01:36:05;24.02;57.59
80412;SHT30;69749;42.684;23.360;2023-07-20T01:38:31;23.92;57.95
80412;SHT30;69749;42.684;23.360;2023-07-20T01:40:57;23.80;58.12
80412;SHT30;69749;42.684;23.360;2023-07-20T01:43:23;23.75;58.29
80412;SHT30;69749;42.684;23.360;2023-07-20T01:45:48;23.80;58.21
80412;SHT30;69749;42.684;23.360;2023-07-20T01:48:14;23.77;58.50
80412;SHT30;69749;42.684;23.360;2023-07-20T01:50:39;23.27;59.85
80412;SHT30;69749;42.684;23.360;2023-07-20T01:53:05;23.35;59.38
80412;SHT30;69749;42.684;23.360;2023-07-20T01:55:30;23.38;59.21
80412;SHT30;69749;42.684;23.360;2023-07-20T01:57:56;23.42;59.12
80412;SHT30;69749;42.684;23.360;2023-07-20T02:00:21;23.46;59.29
80412;SHT30;69749;42.684;23.360;2023-07-20T02:02:49;23.54;59.32
80412;SHT30;69749;42.684;23.360;2023-07-20T02:05:15;23.61;58.95
80412;SHT30;69749;42.684;23.360;2023-07-20T02:07:41;23.58;59.28
80412;SHT30;69749;42.684;23.360;2023-07-20T02:10:06;23.58;59.41
80412;SHT30;69749;42.684;23.360;2023-07-20T02:12:32;23.54;59.30
80412;SHT30;69749;42.684;23.360;2023-07-20T02:15:17;23.56;59.28
80412;SHT30;69749;42.684;23.360;2023-07-20T02:17:44;23.61;59.10
80412;SHT30;69749;42.684;23.360;2023-07-20T02:20:09;23.59;58.85
80412;SHT30;69749;42.684;23.360;2023-07-20T02:22:36;23.63;58.79
80412;SHT30;69749;42.684;23.360;2023-07-20T02:25:04;23.66;58.83
80412;SHT30;69749;42.684;23.360;2023-07-20T02:27:29;23.69;58.64
80412;SHT30;69749;42.684;23.360;2023-07-20T02:29:55;23.67;58.92
80412;SHT30;69749;42.684;23.360;2023-07-20T02:32:21;23.69;59.02
80412;SHT30;69749;42.684;23.360;2023-07-20T02:34:46;23.66;58.82
80412;SHT30;69749;42.684;23.360;2023-07-20T02:37:12;23.66;58.58
80412;SHT30;69749;42.684;23.360;2023-07-20T02:39:38;23.66;58.82
80412;SHT30;69749;42.684;23.360;2023-07-20T02:42:04;23.65;58.85
80412;SHT30;69749;42.684;23.360;2023-07-20T02:44:29;23.66;58.74
80412;SHT30;69749;42.684;23.360;2023-07-20T02:46:55;23.58;58.66
80412;SHT30;69749;42.684;23.360;2023-07-20T02:49:20;23.59;58.86
80412;SHT30;69749;42.684;23.360;2023-07-20T02:51:46;23.63;58.89
80412;SHT30;69749;42.684;23.360;2023-07-20T02:54:11;23.66;58.93
80412;SHT30;69749;42.684;23.360;2023-07-20T02:56:37;23.61;59.05
80412;SHT30;69749;42.684;23.360;2023-07-20T02:59:03;23.58;59.17
80412;SHT30;69749;42.684;23.360;2023-07-20T03:01:29;23.58;59.26
80412;SHT30;69749;42.684;23.360;2023-07-20T03:03:55;23.59;59.27
80412;SHT30;69749;42.684;23.360;2023-07-20T03:06:21;23.61;59.27
80412;SHT30;69749;42.684;23.360;2023-07-20T03:08:46;23.61;59.33
80412;SHT30;69749;42.684;23.360;2023-07-20T03:11:16;23.59;59.35
80412;SHT30;69749;42.684;23.360;2023-07-20T03:13:42;23.61;59.43
80412;SHT30;69749;42.684;23.360;2023-07-20T03:16:08;23.59;59.33
80412;SHT30;69749;42.684;23.360;2023-07-20T03:18:37;23.59;59.29
80412;SHT30;69749;42.684;23.360;2023-07-20T03:21:03;23.59;59.19
80412;SHT30;69749;42.684;23.360;2023-07-20T03:23:28;23.63;58.93
80412;SHT30;69749;42.684;23.360;2023-07-20T03:25:54;23.66;58.84
80412;SHT30;69749;42.684;23.360;2023-07-20T03:28:20;23.65;58.80
80412;SHT30;69749;42.684;23.360;2023-07-20T03:30:45;23.65;58.59
80412;SHT30;69749;42.684;23.360;2023-07-20T03:33:11;23.65;58.48
80412;SHT30;69749;42.684;23.360;2023-07-20T03:35:37;23.72;57.91
80412;SHT30;69749;42.684;23.360;2023-07-20T03:38:02;23.69;57.95
80412;SHT30;69749;42.684;23.360;2023-07-20T03:40:28;23.69;57.91
80412;SHT30;69749;42.684;23.360;2023-07-20T03:42:53;23.62;57.83
80412;SHT30;69749;42.684;23.360;2023-07-20T03:45:18;23.59;58.14
80412;SHT30;69749;42.684;23.360;2023-07-20T03:47:44;23.62;58.07
80412;SHT30;69749;42.684;23.360;2023-07-20T03:50:10;23.63;57.84
80412;SHT30;69749;42.684;23.360;2023-07-20T03:52:36;23.65;57.99
80412;SHT30;69749;42.684;23.360;2023-07-20T03:55:01;23.61;57.93
80412;SHT30;69749;42.684;23.360;2023-07-20T03:57:27;23.41;58.65
80412;SHT30;69749;42.684;23.360;2023-07-20T03:59:52;23.42;58.63
80412;SHT30;69749;42.684;23.360;2023-07-20T04:02:18;23.45;58.48
80412;SHT30;69749;42.684;23.360;2023-07-20T04:04:43;23.39;58.60
80412;SHT30;69749;42.684;23.360;2023-07-20T04:07:09;23.45;58.52
80412;SHT30;69749;42.684;23.360;2023-07-20T04:09:34;23.48;58.69
80412;SHT30;69749;42.684;23.360;2023-07-20T04:12:00;23.51;58.18
80412;SHT30;69749;42.684;23.360;2023-07-20T04:14:25;23.55;57.72
80412;SHT30;69749;42.684;23.360;2023-07-20T04:16:51;23.55;57.75
80412;SHT30;69749;42.684;23.360;2023-07-20T04:19:17;23.46;58.41
80412;SHT30;69749;42.684;23.360;2023-07-20T04:21:43;23.48;58.83
80412;SHT30;69749;42.684;23.360;2023-07-20T04:24:08;23.58;58.51
80412;SHT30;69749;42.684;23.360;2023-07-20T04:26:34;23.63;58.79
80412;SHT30;69749;42.684;23.360;2023-07-20T04:29:00;23.75;58.61
80412;SHT30;69749;42.684;23.360;2023-07-20T04:31:26;23.83;58.09
80412;SHT30;69749;42.684;23.360;2023-07-20T04:33:51;23.72;58.49
80412;SHT30;69749;42.684;23.360;2023-07-20T04:36:17;23.75;58.71
80412;SHT30;69749;42.684;23.360;2023-07-20T04:38:47;23.86;58.64
80412;SHT30;69749;42.684;23.360;2023-07-20T04:41:13;23.87;58.62
80412;SHT30;69749;42.684;23.360;2023-07-20T04:43:42;23.92;58.31
80412;SHT30;69749;42.684;23.360;2023-07-20T04:46:09;23.97;58.08
80412;SHT30;69749;42.684;23.360;2023-07-20T04:48:34;24.09;57.93
80412;SHT30;69749;42.684;23.360;2023-07-20T04:51:00;24.20;57.30
80412;SHT30;69749;42.684;23.360;2023-07-20T04:53:25;24.31;56.90
80412;SHT30;69749;42.684;23.360;2023-07-20T04:55:51;24.44;56.55
80412;SHT30;69749;42.684;23.360;2023-07-20T04:58:17;24.48;56.34
80412;SHT30;69749;42.684;23.360;2023-07-20T05:00:44;24.51;56.35
80412;SHT30;69749;42.684;23.360;2023-07-20T05:03:09;24.61;56.23
80412;SHT30;69749;42.684;23.360;2023-07-20T05:05:34;24.67;55.72
80412;SHT30;69749;42.684;23.360;2023-07-20T05:08:00;24.62;54.47
80412;SHT30;69749;42.684;23.360;2023-07-20T05:10:25;24.68;54.87
80412;SHT30;69749;42.684;23.360;2023-07-20T05:12:51;24.78;54.27
80412;SHT30;69749;42.684;23.360;2023-07-20T05:15:16;24.85;54.02
80412;SHT30;69749;42.684;23.360;2023-07-20T05:17:42;24.83;53.77
80412;SHT30;69749;42.684;23.360;2023-07-20T05:20:07;24.91;53.91
80412;SHT30;69749;42.684;23.360;2023-07-20T05:22:37;25.12;53.50
80412;SHT30;69749;42.684;23.360;2023-07-20T05:25:09;25.34;53.13
80412;SHT30;69749;42.684;23.360;2023-07-20T05:27:37;25.54;52.67
80412;SHT30;69749;42.684;23.360;2023-07-20T05:30:03;25.69;52.11
80412;SHT30;69749;42.684;23.360;2023-07-20T05:32:28;25.91;51.75
80412;SHT30;69749;42.684;23.360;2023-07-20T05:34:54;26.11;51.67
80412;SHT30;69749;42.684;23.360;2023-07-20T05:37:20;26.33;50.65
80412;SHT30;69749;42.684;23.360;2023-07-20T05:39:45;26.46;51.06
80412;SHT30;69749;42.684;23.360;2023-07-20T05:42:11;26.66;50.18
80412;SHT30;69749;42.684;23.360;2023-07-20T05:44:37;26.79;50.28
80412;SHT30;69749;42.684;23.360;2023-07-20T05:47:02;27.00;49.82
80412;SHT30;69749;42.684;23.360;2023-07-20T05:49:28;27.10;49.69
80412;SHT30;69749;42.684;23.360;2023-07-20T05:51:55;27.31;49.35
80412;SHT30;69749;42.684;23.360;2023-07-20T05:54:21;27.52;48.72
80412;SHT30;69749;42.684;23.360;2023-07-20T05:56:46;27.89;47.61
80412;SHT30;69749;42.684;23.360;2023-07-20T05:59:12;28.07;47.27
80412;SHT30;69749;42.684;23.360;2023-07-20T06:01:38;28.32;46.74
80412;SHT30;69749;42.684;23.360;2023-07-20T06:04:03;28.57;45.81
80412;SHT30;69749;42.684;23.360;2023-07-20T06:06:29;28.85;44.62
80412;SHT30;69749;42.684;23.360;2023-07-20T06:08:54;29.02;44.86
80412;SHT30;69749;42.684;23.360;2023-07-20T06:11:20;29.19;44.30
80412;SHT30;69749;42.684;23.360;2023-07-20T06:13:45;29.43;43.84
80412;SHT30;69749;42.684;23.360;2023-07-20T06:16:11;29.70;43.58
80412;SHT30;69749;42.684;23.360;2023-07-20T06:18:36;29.97;43.06
80412;SHT30;69749;42.684;23.360;2023-07-20T06:21:02;30.33;41.80
80412;SHT30;69749;42.684;23.360;2023-07-20T06:23:27;30.72;40.82
80412;SHT30;69749;42.684;23.360;2023-07-20T06:25:53;31.23;39.43
80412;SHT30;69749;42.684;23.360;2023-07-20T06:28:18;31.52;39.52
80412;SHT30;69749;42.684;23.360;2023-07-20T06:30:44;31.89;39.10
80412;SHT30;69749;42.684;23.360;2023-07-20T06:33:09;32.94;36.98
80412;SHT30;69749;42.684;23.360;2023-07-20T06:35:35;33.72;35.11
80412;SHT30;69749;42.684;23.360;2023-07-20T06:38:01;34.37;34.51
80412;SHT30;69749;42.684;23.360;2023-07-20T06:40:29;35.03;33.77
80412;SHT30;69749;42.684;23.360;2023-07-20T06:42:54;35.78;32.75
80412;SHT30;69749;42.684;23.360;2023-07-20T06:45:20;36.69;30.92
80412;SHT30;69749;42.684;23.360;2023-07-20T06:47:45;37.16;30.15
80412;SHT30;69749;42.684;23.360;2023-07-20T06:50:11;37.08;29.96
80412;SHT30;69749;42.684;23.360;2023-07-20T06:52:37;37.62;29.56
80412;SHT30;69749;42.684;23.360;2023-07-20T06:55:02;38.20;28.77
80412;SHT30;69749;42.684;23.360;2023-07-20T06:57:28;38.80;27.99
80412;SHT30;69749;42.684;23.360;2023-07-20T06:59:53;39.08;28.06
80412;SHT30;69749;42.684;23.360;2023-07-20T07:02:19;39.29;27.67
80412;SHT30;69749;42.684;23.360;2023-07-20T07:04:45;39.50;27.25
80412;SHT30;69749;42.684;23.360;2023-07-20T07:07:13;39.32;27.62
80412;SHT30;69749;42.684;23.360;2023-07-20T07:09:39;39.12;28.28
80412;SHT30;69749;42.684;23.360;2023-07-20T07:12:04;38.39;28.71
80412;SHT30;69749;42.684;23.360;2023-07-20T07:14:30;37.71;29.20
80412;SHT30;69749;42.684;23.360;2023-07-20T07:16:55;36.89;30.04
80412;SHT30;69749;42.684;23.360;2023-07-20T07:19:20;37.11;30.20
80412;SHT30;69749;42.684;23.360;2023-07-20T07:21:46;37.26;29.76
80412;SHT30;69749;42.684;23.360;2023-07-20T07:24:12;37.26;30.03
80412;SHT30;69749;42.684;23.360;2023-07-20T07:26:37;37.71;29.35
80412;SHT30;69749;42.684;23.360;2023-07-20T07:29:03;37.65;29.23
80412;SHT30;69749;42.684;23.360;2023-07-20T07:31:29;37.21;29.76
80412;SHT30;69749;42.684;23.360;2023-07-20T07:33:54;36.83;30.44
80412;SHT30;69749;42.684;23.360;2023-07-20T07:36:20;36.43;30.92
80412;SHT30;69749;42.684;23.360;2023-07-20T07:38:45;35.94;31.12
80412;SHT30;69749;42.684;23.360;2023-07-20T07:41:11;35.74;31.43
80412;SHT30;69749;42.684;23.360;2023-07-20T07:43:37;35.54;31.67
80412;SHT30;69749;42.684;23.360;2023-07-20T07:46:03;35.37;32.03
80412;SHT30;69749;42.684;23.360;2023-07-20T07:48:29;35.42;32.73
80412;SHT30;69749;42.684;23.360;2023-07-20T07:50:54;35.44;32.97
80412;SHT30;69749;42.684;23.360;2023-07-20T07:53:20;35.51;32.15
80412;SHT30;69749;42.684;23.360;2023-07-20T07:55:47;35.30;32.58
80412;SHT30;69749;42.684;23.360;2023-07-20T07:58:13;35.03;32.98
80412;SHT30;69749;42.684;23.360;2023-07-20T08:00:39;34.96;33.31
80412;SHT30;69749;42.684;23.360;2023-07-20T08:03:06;34.95;33.26
80412;SHT30;69749;42.684;23.360;2023-07-20T08:05:31;34.99;33.25
80412;SHT30;69749;42.684;23.360;2023-07-20T08:07:57;35.17;33.06
80412;SHT30;69749;42.684;23.360;2023-07-20T08:10:22;35.00;33.22
80412;SHT30;69749;42.684;23.360;2023-07-20T08:12:48;35.06;33.75
80412;SHT30;69749;42.684;23.360;2023-07-20T08:15:14;35.06;34.10
80412;SHT30;69749;42.684;23.360;2023-07-20T08:17:41;34.91;33.66
80412;SHT30;69749;42.684;23.360;2023-07-20T08:20:07;34.37;35.13
80412;SHT30;69749;42.684;23.360;2023-07-20T08:22:34;34.34;35.31
80412;SHT30;69749;42.684;23.360;2023-07-20T08:25:00;34.44;35.84
80412;SHT30;69749;42.684;23.360;2023-07-20T08:27:25;34.45;36.27
80412;SHT30;69749;42.684;23.360;2023-07-20T08:29:51;34.47;36.73
80412;SHT30;69749;42.684;23.360;2023-07-20T08:32:16;34.34;35.74
80412;SHT30;69749;42.684;23.360;2023-07-20T08:34:42;34.23;35.23
80412;SHT30;69749;42.684;23.360;2023-07-20T08:37:07;34.33;34.46
80412;SHT30;69749;42.684;23.360;2023-07-20T08:39:35;34.33;33.97
80412;SHT30;69749;42.684;23.360;2023-07-20T08:42:01;34.28;34.05
80412;SHT30;69749;42.684;23.360;2023-07-20T08:44:32;34.40;34.42
80412;SHT30;69749;42.684;23.360;2023-07-20T08:46:58;34.38;32.95
80412;SHT30;69749;42.684;23.360;2023-07-20T08:49:25;34.24;32.21
80412;SHT30;69749;42.684;23.360;2023-07-20T08:51:52;34.17;32.33
80412;SHT30;69749;42.684;23.360;2023-07-20T08:54:18;34.18;32.28
80412;SHT30;69749;42.684;23.360;2023-07-20T08:56:45;34.18;32.94
80412;SHT30;69749;42.684;23.360;2023-07-20T08:59:12;34.17;32.31
80412;SHT30;69749;42.684;23.360;2023-07-20T09:01:39;34.14;32.68
80412;SHT30;69749;42.684;23.360;2023-07-20T09:04:04;34.11;31.95
80412;SHT30;69749;42.684;23.360;2023-07-20T09:06:30;34.13;31.99
80412;SHT30;69749;42.684;23.360;2023-07-20T09:08:55;34.13;32.06
80412;SHT30;69749;42.684;23.360;2023-07-20T09:11:21;34.06;31.74
80412;SHT30;69749;42.684;23.360;2023-07-20T09:13:46;34.01;32.79
80412;SHT30;69749;42.684;23.360;2023-07-20T09:16:15;34.10;32.24
80412;SHT30;69749;42.684;23.360;2023-07-20T09:18:41;34.08;31.98
80412;SHT30;69749;42.684;23.360;2023-07-20T09:21:06;33.97;32.32
80412;SHT30;69749;42.684;23.360;2023-07-20T09:23:35;34.01;32.50
80412;SHT30;69749;42.684;23.360;2023-07-20T09:26:12;33.96;33.03
80412;SHT30;69749;42.684;23.360;2023-07-20T09:28:47;34.07;33.62
80412;SHT30;69749;42.684;23.360;2023-07-20T09:31:20;34.16;33.34
80412;SHT30;69749;42.684;23.360;2023-07-20T09:33:46;34.23;33.29
80412;SHT30;69749;42.684;23.360;2023-07-20T09:36:12;34.18;32.85
80412;SHT30;69749;42.684;23.360;2023-07-20T09:38:41;34.14;32.99
80412;SHT30;69749;42.684;23.360;2023-07-20T09:41:07;34.14;33.81
80412;SHT30;69749;42.684;23.360;2023-07-20T09:43:36;34.20;33.32
80412;SHT30;69749;42.684;23.360;2023-07-20T09:46:02;34.24;32.50
80412;SHT30;69749;42.684;23.360;2023-07-20T09:48:27;34.13;32.02
80412;SHT30;69749;42.684;23.360;2023-07-20T09:50:53;34.00;31.92
80412;SHT30;69749;42.684;23.360;2023-07-20T09:53:19;34.00;31.16
80412;SHT30;69749;42.684;23.360;2023-07-20T09:55:46;34.10;31.85
80412;SHT30;69749;42.684;23.360;2023-07-20T09:58:13;34.24;30.69
80412;SHT30;69749;42.684;23.360;2023-07-20T10:00:40;34.20;31.84
80412;SHT30;69749;42.684;23.360;2023-07-20T10:03:06;34.13;30.94
80412;SHT30;69749;42.684;23.360;2023-07-20T10:05:37;34.06;30.56
80412;SHT30;69749;42.684;23.360;2023-07-20T10:08:05;33.94;30.79
80412;SHT30;69749;42.684;23.360;2023-07-20T10:10:33;33.83;31.42
80412;SHT30;69749;42.684;23.360;2023-07-20T10:13:00;33.83;30.61
80412;SHT30;69749;42.684;23.360;2023-07-20T10:15:33;33.67;30.85
80412;SHT30;69749;42.684;23.360;2023-07-20T10:20:39;33.58;31.20
80412;SHT30;69749;42.684;23.360;2023-07-20T10:23:06;33.55;31.61
80412;SHT30;69749;42.684;23.360;2023-07-20T10:25:32;33.62;31.80
80412;SHT30;69749;42.684;23.360;2023-07-20T10:28:06;33.55;31.60
80412;SHT30;69749;42.684;23.360;2023-07-20T10:30:33;33.48;31.85
80412;SHT30;69749;42.684;23.360;2023-07-20T10:33:01;33.41;32.91
80412;SHT30;69749;42.684;23.360;2023-07-20T10:35:27;33.33;32.63
80412;SHT30;69749;42.684;23.360;2023-07-20T10:38:02;33.39;32.58
80412;SHT30;69749;42.684;23.360;2023-07-20T10:40:38;33.28;32.40
80412;SHT30;69749;42.684;23.360;2023-07-20T10:43:05;33.23;33.66
80412;SHT30;69749;42.684;23.360;2023-07-20T10:48:03;32.78;32.02
80412;SHT30;69749;42.684;23.360;2023-07-20T10:50:30;32.64;32.90
80412;SHT30;69749;42.684;23.360;2023-07-20T10:53:25;32.65;32.58
80412;SHT30;69749;42.684;23.360;2023-07-20T10:56:06;32.70;34.13
80412;SHT30;69749;42.684;23.360;2023-07-20T10:58:33;32.60;33.38
80412;SHT30;69749;42.684;23.360;2023-07-20T11:01:03;32.59;33.91
80412;SHT30;69749;42.684;23.360;2023-07-20T11:03:35;32.63;33.87
80412;SHT30;69749;42.684;23.360;2023-07-20T11:08:54;33.00;32.06
80412;SHT30;69749;42.684;23.360;2023-07-20T11:11:29;33.05;32.22
80412;SHT30;69749;42.684;23.360;2023-07-20T11:14:05;33.08;32.28
80412;SHT30;69749;42.684;23.360;2023-07-20T11:16:43;33.11;33.17
80412;SHT30;69749;42.684;23.360;2023-07-20T11:21:43;33.31;33.65
80412;SHT30;69749;42.684;23.360;2023-07-20T11:24:09;33.39;33.35
80412;SHT30;69749;42.684;23.360;2023-07-20T11:26:46;33.42;32.65
80412;SHT30;69749;42.684;23.360;2023-07-20T11:29:12;33.31;32.43
80412;SHT30;69749;42.684;23.360;2023-07-20T11:31:39;33.25;33.52
80412;SHT30;69749;42.684;23.360;2023-07-20T11:34:06;33.31;33.16
80412;SHT30;69749;42.684;23.360;2023-07-20T11:36:33;33.35;34.24
80412;SHT30;69749;42.684;23.360;2023-07-20T11:38:59;33.43;33.22
80412;SHT30;69749;42.684;23.360;2023-07-20T11:41:25;33.49;32.77
80412;SHT30;69749;42.684;23.360;2023-07-20T11:43:52;33.39;32.77
80412;SHT30;69749;42.684;23.360;2023-07-20T11:46:17;33.25;33.07
80412;SHT30;69749;42.684;23.360;2023-07-20T11:48:42;33.19;33.78
80412;SHT30;69749;42.684;23.360;2023-07-20T11:51:16;33.19;33.85
80412;SHT30;69749;42.684;23.360;2023-07-20T11:53:43;33.19;33.84
80412;SHT30;69749;42.684;23.360;2023-07-20T11:56:10;33.17;33.37
80412;SHT30;69749;42.684;23.360;2023-07-20T11:58:36;33.15;34.03
80412;SHT30;69749;42.684;23.360;2023-07-20T12:01:01;33.17;33.72
80412;SHT30;69749;42.684;23.360;2023-07-20T12:03:27;33.15;33.62
80412;SHT30;69749;42.684;23.360;2023-07-20T12:05:53;33.08;33.14
80412;SHT30;69749;42.684;23.360;2023-07-20T12:08:18;32.97;33.62
80412;SHT30;69749;42.684;23.360;2023-07-20T12:10:48;32.98;33.83
80412;SHT30;69749;42.684;23.360;2023-07-20T12:13:14;33.00;33.95
80412;SHT30;69749;42.684;23.360;2023-07-20T12:15:39;33.07;32.91
80412;SHT30;69749;42.684;23.360;2023-07-20T12:18:05;33.01;33.16
80412;SHT30;69749;42.684;23.360;2023-07-20T12:23:06;33.04;33.79
80412;SHT30;69749;42.684;23.360;2023-07-20T12:25:43;33.07;33.67
80412;SHT30;69749;42.684;23.360;2023-07-20T12:28:17;33.11;33.59
80412;SHT30;69749;42.684;23.360;2023-07-20T12:30:45;33.15;32.24
80412;SHT30;69749;42.684;23.360;2023-07-20T12:33:10;33.17;32.16
80412;SHT30;69749;42.684;23.360;2023-07-20T12:35:37;33.17;32.68
80412;SHT30;69749;42.684;23.360;2023-07-20T12:38:02;33.15;33.64
80412;SHT30;69749;42.684;23.360;2023-07-20T12:40:28;33.18;31.48
80412;SHT30;69749;42.684;23.360;2023-07-20T12:42:53;33.18;31.72
80412;SHT30;69749;42.684;23.360;2023-07-20T12:45:19;33.22;32.07
80412;SHT30;69749;42.684;23.360;2023-07-20T12:47:44;33.23;32.05
80412;SHT30;69749;42.684;23.360;2023-07-20T12:50:10;33.26;31.61
80412;SHT30;69749;42.684;23.360;2023-07-20T12:52:37;33.32;29.94
80412;SHT30;69749;42.684;23.360;2023-07-20T12:55:04;33.33;30.07
80412;SHT30;69749;42.684;23.360;2023-07-20T12:57:29;33.36;30.04
80412;SHT30;69749;42.684;23.360;2023-07-20T12:59:55;33.35;30.53
80412;SHT30;69749;42.684;23.360;2023-07-20T13:02:20;33.39;30.43
80412;SHT30;69749;42.684;23.360;2023-07-20T13:04:45;33.36;30.78
80412;SHT30;69749;42.684;23.360;2023-07-20T13:07:11;33.36;30.72
80412;SHT30;69749;42.684;23.360;2023-07-20T13:09:39;33.38;30.46
80412;SHT30;69749;42.684;23.360;2023-07-20T13:12:05;33.42;30.47
80412;SHT30;69749;42.684;23.360;2023-07-20T13:14:30;33.29;30.98
80412;SHT30;69749;42.684;23.360;2023-07-20T13:16:56;33.23;31.07
80412;SHT30;69749;42.684;23.360;2023-07-20T13:19:21;33.23;30.96
80412;SHT30;69749;42.684;23.360;2023-07-20T13:21:47;33.23;31.69
80412;SHT30;69749;42.684;23.360;2023-07-20T13:24:13;33.28;31.28
80412;SHT30;69749;42.684;23.360;2023-07-20T13:26:38;33.19;32.19
80412;SHT30;69749;42.684;23.360;2023-07-20T13:29:04;33.25;31.35
80412;SHT30;69749;42.684;23.360;2023-07-20T13:31:29;33.28;31.58
80412;SHT30;69749;42.684;23.360;2023-07-20T13:33:54;33.28;31.99
80412;SHT30;69749;42.684;23.360;2023-07-20T13:36:21;33.28;31.81
80412;SHT30;69749;42.684;23.360;2023-07-20T13:38:47;33.26;32.75
80412;SHT30;69749;42.684;23.360;2023-07-20T13:41:14;33.23;33.20
80412;SHT30;69749;42.684;23.360;2023-07-20T13:43:40;33.25;33.37
80412;SHT30;69749;42.684;23.360;2023-07-20T13:46:06;33.22;33.43
80412;SHT30;69749;42.684;23.360;2023-07-20T13:48:31;33.11;33.48
80412;SHT30;69749;42.684;23.360;2023-07-20T13:50:56;33.09;33.49
80412;SHT30;69749;42.684;23.360;2023-07-20T13:53:22;33.05;33.98
80412;SHT30;69749;42.684;23.360;2023-07-20T13:55:48;33.08;33.80
80412;SHT30;69749;42.684;23.360;2023-07-20T13:58:13;33.02;33.30
80412;SHT30;69749;42.684;23.360;2023-07-20T14:00:39;33.01;31.89
80412;SHT30;69749;42.684;23.360;2023-07-20T14:03:04;32.95;31.64
80412;SHT30;69749;42.684;23.360;2023-07-20T14:05:30;32.97;31.96
80412;SHT30;69749;42.684;23.360;2023-07-20T14:07:55;32.98;32.09
80412;SHT30;69749;42.684;23.360;2023-07-20T14:10:23;32.88;32.07
80412;SHT30;69749;42.684;23.360;2023-07-20T14:12:54;32.95;32.34
80412;SHT30;69749;42.684;23.360;2023-07-20T14:15:19;32.94;32.04
80412;SHT30;69749;42.684;23.360;2023-07-20T14:17:45;32.87;31.78
80412;SHT30;69749;42.684;23.360;2023-07-20T14:20:11;32.75;31.44
80412;SHT30;69749;42.684;23.360;2023-07-20T14:22:36;32.78;31.20
80412;SHT30;69749;42.684;23.360;2023-07-20T14:25:02;32.74;31.62
80412;SHT30;69749;42.684;23.360;2023-07-20T14:27:28;32.70;32.18
80412;SHT30;69749;42.684;23.360;2023-07-20T14:29:53;32.70;32.12
80412;SHT30;69749;42.684;23.360;2023-07-20T14:32:19;32.61;32.15
80412;SHT30;69749;42.684;23.360;2023-07-20T14:34:51;32.61;31.75
80412;SHT30;69749;42.684;23.360;2023-07-20T14:37:16;32.64;32.26
80412;SHT30;69749;42.684;23.360;2023-07-20T14:39:42;32.59;31.88
80412;SHT30;69749;42.684;23.360;2023-07-20T14:42:07;32.53;32.64
80412;SHT30;69749;42.684;23.360;2023-07-20T14:44:33;32.51;32.51
80412;SHT30;69749;42.684;23.360;2023-07-20T14:46:58;32.51;32.49
80412;SHT30;69749;42.684;23.360;2023-07-20T14:49:27;32.44;32.46
80412;SHT30;69749;42.684;23.360;2023-07-20T14:51:53;32.32;32.40
80412;SHT30;69749;42.684;23.360;2023-07-20T14:54:18;32.30;32.82
80412;SHT30;69749;42.684;23.360;2023-07-20T14:56:51;32.30;33.31
80412;SHT30;69749;42.684;23.360;2023-07-20T14:59:20;32.22;33.01
80412;SHT30;69749;42.684;23.360;2023-07-20T15:01:46;32.12;33.25
80412;SHT30;69749;42.684;23.360;2023-07-20T15:04:15;32.10;33.70
80412;SHT30;69749;42.684;23.360;2023-07-20T15:06:41;32.09;34.49
80412;SHT30;69749;42.684;23.360;2023-07-20T15:09:06;32.10;34.71
80412;SHT30;69749;42.684;23.360;2023-07-20T15:11:33;32.13;34.50
80412;SHT30;69749;42.684;23.360;2023-07-20T15:13:58;32.09;34.52
80412;SHT30;69749;42.684;23.360;2023-07-20T15:16:24;32.09;34.31
80412;SHT30;69749;42.684;23.360;2023-07-20T15:18:49;32.08;34.53
80412;SHT30;69749;42.684;23.360;2023-07-20T15:21:15;32.05;34.19
80412;SHT30;69749;42.684;23.360;2023-07-20T15:23:42;31.99;33.88
80412;SHT30;69749;42.684;23.360;2023-07-20T15:26:07;32.02;34.04
80412;SHT30;69749;42.684;23.360;2023-07-20T15:28:33;31.95;34.15
80412;SHT30;69749;42.684;23.360;2023-07-20T15:31:02;31.95;34.93
80412;SHT30;69749;42.684;23.360;2023-07-20T15:33:28;32.02;34.48
80412;SHT30;69749;42.684;23.360;2023-07-20T15:35:54;31.96;34.41